Time;durP1;ratioP1;P1;durP2;ratioP2;P2;SDS_P1;SDS_P2;PMS_P1;PMS_P2;Temp;Humidity;BMP_temperature;BMP_pressure;BME280_temperature;BME280_humidity;BME280_pressure;Samples;Min_cycle;Max_cycle;Signal;HPM_P1;HPM_P2
2023/09/25 00:01:40;;;;;;;4.50;1.80;;;;;;;5.78;71.84;101051.11;106545;1272;22538;-56
2023/09/25 00:04:09;;;;;;;3.40;1.30;;;;;;;5.79;72.19;101048.34;106647;1270;99679;-56
2023/09/25 00:06:38;;;;;;;3.20;1.60;;;;;;;5.80;72.34;101051.29;106749;1270;25281;-56
2023/09/25 00:09:07;;;;;;;2.90;1.50;;;;;;;5.79;72.07;101056.63;106785;1269;99828;-56
2023/09/25 00:11:36;;;;;;;3.10;1.50;;;;;;;5.77;71.71;101059.77;107014;1270;22524;-56
2023/09/25 00:14:05;;;;;;;5.10;2.40;;;;;;;5.73;71.87;101063.58;106831;1269;22644;-56
2023/09/25 00:16:34;;;;;;;4.80;1.80;;;;;;;5.70;72.10;101064.48;107041;1270;99107;-57
2023/09/25 00:19:04;;;;;;;7.50;2.80;;;;;;;5.68;72.43;101063.44;106838;1269;23901;-56
2023/09/25 00:21:33;;;;;;;3.70;2.30;;;;;;;5.69;72.44;101064.98;106696;1266;98988;-56
2023/09/25 00:24:02;;;;;;;2.00;1.10;;;;;;;5.72;72.57;101064.80;106805;1273;22549;-56
2023/09/25 00:26:30;;;;;;;2.40;1.20;;;;;;;5.71;72.49;101066.54;106733;1272;25440;-56
2023/09/25 00:28:59;;;;;;;3.90;1.60;;;;;;;5.70;72.47;101065.33;106580;1266;99542;-57
2023/09/25 00:31:28;;;;;;;4.60;1.30;;;;;;;5.68;72.78;101066.02;106690;1269;24272;-56
2023/09/25 00:33:56;;;;;;;3.00;1.60;;;;;;;5.67;72.75;101067.59;106663;1269;99764;-56
2023/09/25 00:36:25;;;;;;;5.30;1.50;;;;;;;5.67;73.08;101067.25;106583;1272;25261;-57
2023/09/25 00:38:54;;;;;;;3.50;1.70;;;;;;;5.69;73.19;101067.23;106791;1270;99847;-57
2023/09/25 00:41:23;;;;;;;3.10;2.00;;;;;;;5.69;73.37;101068.27;106835;1269;26673;-57
2023/09/25 00:43:52;;;;;;;3.30;1.60;;;;;;;5.69;73.47;101071.73;106919;1276;22652;-57
2023/09/25 00:46:20;;;;;;;2.80;1.70;;;;;;;5.68;73.41;101072.25;106622;1269;99238;-57
2023/09/25 00:48:49;;;;;;;2.30;1.10;;;;;;;5.66;73.53;101067.59;106965;1269;22550;-57
2023/09/25 00:51:19;;;;;;;2.40;1.20;;;;;;;5.64;73.45;101066.76;106938;1270;99243;-57
2023/09/25 00:53:48;;;;;;;5.10;1.40;;;;;;;5.61;73.53;101065.20;106798;1270;22547;-57
2023/09/25 00:56:18;;;;;;;9.70;1.60;;;;;;;5.59;73.39;101061.23;106684;1269;22531;-57
2023/09/25 00:58:47;;;;;;;2.80;1.50;;;;;;;5.59;73.41;101062.98;106645;1260;99897;-56
2023/09/25 01:01:16;;;;;;;3.30;1.80;;;;;;;5.56;73.34;101069.90;106838;1273;24394;-56
2023/09/25 01:03:45;;;;;;;2.80;1.20;;;;;;;5.54;73.66;101070.41;106524;1270;99844;-56
2023/09/25 01:06:14;;;;;;;2.70;1.40;;;;;;;5.57;73.91;101068.34;106777;1269;22639;-56
2023/09/25 01:08:43;;;;;;;3.90;1.70;;;;;;;5.59;74.19;101064.69;106669;1269;99232;-56
2023/09/25 01:11:12;;;;;;;3.00;1.20;;;;;;;5.59;74.27;101062.79;107026;1270;25321;-56
2023/09/25 01:13:41;;;;;;;3.70;1.40;;;;;;;5.59;74.23;101067.11;106887;1269;22654;-57
2023/09/25 01:16:11;;;;;;;2.50;1.20;;;;;;;5.58;74.21;101063.66;106566;1270;99117;-57
2023/09/25 01:18:40;;;;;;;3.10;1.50;;;;;;;5.55;74.60;101059.36;106959;1270;22605;-57
2023/09/25 01:21:09;;;;;;;3.30;1.40;;;;;;;5.55;74.80;101060.74;106918;1272;99842;-57
2023/09/25 01:23:38;;;;;;;3.20;1.40;;;;;;;5.56;74.71;101060.21;106841;1270;26679;-57
2023/09/25 01:26:06;;;;;;;6.90;1.70;;;;;;;5.54;74.69;101061.61;106808;1270;25287;-57
2023/09/25 01:28:36;;;;;;;3.20;1.30;;;;;;;5.53;74.86;101060.05;106574;1265;99215;-57
2023/09/25 01:31:07;;;;;;;1.80;1.30;;;;;;;5.52;74.94;101056.62;106739;1272;23735;-57
2023/09/25 01:33:35;;;;;;;3.80;1.70;;;;;;;5.49;75.15;101054.38;106860;1269;99664;-57
2023/09/25 01:36:05;;;;;;;2.00;1.70;;;;;;;5.46;75.33;101056.48;106834;1271;24322;-57
2023/09/25 01:38:35;;;;;;;4.60;1.70;;;;;;;5.45;75.48;101051.13;106710;1269;22636;-57
2023/09/25 01:41:04;;;;;;;3.40;2.10;;;;;;;5.46;75.58;101051.63;106789;1270;25310;-57
2023/09/25 01:43:32;;;;;;;3.00;1.90;;;;;;;5.46;75.45;101049.22;106790;1269;25299;-57
2023/09/25 01:46:01;;;;;;;9.00;2.90;;;;;;;5.46;75.71;101049.56;106859;1270;99087;-56
2023/09/25 01:48:31;;;;;;;6.70;1.50;;;;;;;5.46;75.92;101049.40;106628;1269;24241;-57
2023/09/25 01:51:00;;;;;;;3.40;2.20;;;;;;;5.46;75.65;101051.99;106680;1269;99863;-57
2023/09/25 01:53:28;;;;;;;2.80;1.30;;;;;;;5.45;75.56;101055.27;106984;1269;22528;-57
2023/09/25 01:55:57;;;;;;;2.90;1.70;;;;;;;5.42;75.20;101054.93;106715;1272;22639;-57
2023/09/25 01:58:26;;;;;;;2.50;1.50;;;;;;;5.37;75.26;101054.63;106552;1274;99178;-57
2023/09/25 02:00:55;;;;;;;3.30;1.40;;;;;;;5.33;75.13;101054.30;106825;1273;25452;-57
2023/09/25 02:03:24;;;;;;;4.00;1.50;;;;;;;5.30;75.09;101048.95;106645;1273;99647;-57
2023/09/25 02:05:57;;;;;;;4.80;1.80;;;;;;;5.32;75.55;101053.77;106768;1270;22658;-57
2023/09/25 02:08:25;;;;;;;2.40;1.20;;;;;;;5.31;76.01;101051.88;106807;1271;23946;-57
2023/09/25 02:10:54;;;;;;;2.80;1.50;;;;;;;5.26;75.65;101053.64;106516;1272;99527;-56
2023/09/25 02:13:23;;;;;;;5.20;1.40;;;;;;;5.23;75.60;101051.92;106894;1270;22929;-57
2023/09/25 02:15:52;;;;;;;4.10;1.80;;;;;;;5.25;75.79;101052.94;106510;1272;99234;-56
2023/09/25 02:18:21;;;;;;;5.50;1.80;;;;;;;5.25;75.98;101051.22;106997;1275;25300;-57
2023/09/25 02:20:50;;;;;;;2.70;1.50;;;;;;;5.24;76.14;101052.27;106919;1271;98369;-56
2023/09/25 02:23:19;;;;;;;3.20;1.80;;;;;;;5.25;76.61;101056.58;106806;1269;22637;-56
2023/09/25 02:25:48;;;;;;;3.10;1.40;;;;;;;5.26;76.39;101060.19;106937;1269;22470;-57
2023/09/25 02:28:17;;;;;;;2.60;1.20;;;;;;;5.25;76.57;101065.37;106655;1274;99173;-57
2023/09/25 02:30:46;;;;;;;2.90;1.80;;;;;;;5.25;76.77;101064.35;106816;1270;23274;-57
2023/09/25 02:33:15;;;;;;;2.20;1.00;;;;;;;5.24;76.64;101067.80;106583;1270;99900;-57
2023/09/25 02:35:44;;;;;;;3.50;1.50;;;;;;;5.23;76.66;101068.66;106756;1269;25448;-58
2023/09/25 02:38:12;;;;;;;3.90;1.80;;;;;;;5.21;76.53;101073.84;106691;1272;25387;-57
2023/09/25 02:40:41;;;;;;;3.40;1.50;;;;;;;5.21;76.80;101069.02;106819;1273;100246;-57
2023/09/25 02:43:10;;;;;;;7.90;1.50;;;;;;;5.22;76.75;101066.77;106701;1269;25430;-57
2023/09/25 02:45:39;;;;;;;3.80;1.50;;;;;;;5.20;76.59;101071.43;106636;1270;99731;-56
2023/09/25 02:48:08;;;;;;;4.10;1.70;;;;;;;5.18;76.49;101070.56;106766;1269;22536;-57
2023/09/25 02:50:38;;;;;;;2.20;1.40;;;;;;;5.15;76.63;101068.87;106813;1269;25352;-57
2023/09/25 02:53:07;;;;;;;3.70;1.20;;;;;;;5.11;76.69;101067.83;106708;1261;22625;-57
2023/09/25 02:55:36;;;;;;;2.70;1.30;;;;;;;5.08;76.71;101067.16;106722;1270;23910;-57
2023/09/25 02:58:05;;;;;;;2.30;1.00;;;;;;;5.04;76.86;101064.23;106901;1264;99610;-57
2023/09/25 03:00:34;;;;;;;3.10;1.30;;;;;;;5.00;76.95;101063.20;106780;1270;22546;-57
2023/09/25 03:03:03;;;;;;;3.90;2.10;;;;;;;5.04;77.07;101058.88;106726;1270;100814;-56
2023/09/25 03:05:32;;;;;;;1.60;1.00;;;;;;;5.07;77.21;101060.26;106713;1270;23892;-57
2023/09/25 03:08:02;;;;;;;3.90;0.90;;;;;;;5.08;77.25;101061.82;106776;1270;22528;-57
2023/09/25 03:10:30;;;;;;;2.10;1.20;;;;;;;5.09;77.30;101068.36;106707;1269;99649;-57
2023/09/25 03:12:59;;;;;;;2.50;1.20;;;;;;;5.08;77.36;101075.95;106868;1269;22639;-57
2023/09/25 03:15:28;;;;;;;2.50;1.20;;;;;;;5.10;77.33;101076.48;106780;1270;99528;-57
2023/09/25 03:17:57;;;;;;;2.20;1.60;;;;;;;5.10;77.71;101078.89;106847;1269;22629;-57
2023/09/25 03:20:26;;;;;;;2.30;1.50;;;;;;;5.08;77.73;101078.20;106817;1270;26538;-58
2023/09/25 03:22:55;;;;;;;3.50;1.60;;;;;;;5.05;77.76;101077.01;106637;1271;98968;-58
2023/09/25 03:25:24;;;;;;;2.90;1.20;;;;;;;5.03;77.71;101073.20;106826;1270;24742;-57
2023/09/25 03:27:53;;;;;;;2.30;1.10;;;;;;;5.01;77.83;101074.24;106459;1276;99233;-58
2023/09/25 03:30:21;;;;;;;5.80;1.30;;;;;;;5.02;77.94;101078.91;106709;1273;23890;-57
2023/09/25 03:32:54;;;;;;;3.00;1.40;;;;;;;5.08;78.14;101082.86;106804;1272;99852;-55
2023/09/25 03:35:24;;;;;;;1.70;1.10;;;;;;;5.11;77.99;101082.16;106691;1270;22524;-57
2023/09/25 03:37:53;;;;;;;4.50;1.50;;;;;;;5.09;77.96;101085.63;107449;1269;23881;-58
2023/09/25 03:40:21;;;;;;;3.50;1.10;;;;;;;5.07;77.88;101086.33;106604;1273;99678;-57
2023/09/25 03:42:50;;;;;;;3.50;1.40;;;;;;;5.07;78.14;101087.02;106654;1270;25268;-57
2023/09/25 03:45:19;;;;;;;1.70;1.10;;;;;;;5.08;78.17;101088.05;110021;1270;99926;-58
2023/09/25 03:47:50;;;;;;;1.90;1.00;;;;;;;5.07;78.23;101087.88;106633;1269;22666;-58
2023/09/25 03:50:20;;;;;;;3.40;1.90;;;;;;;5.09;78.57;101085.11;107226;1270;22539;-57
2023/09/25 03:52:48;;;;;;;3.10;1.10;;;;;;;5.10;78.58;101085.80;106746;1270;99646;-57
2023/09/25 03:55:17;;;;;;;3.90;1.50;;;;;;;5.11;78.61;101085.97;107087;1272;25325;-57
2023/09/25 03:57:46;;;;;;;5.60;1.30;;;;;;;5.10;78.62;101085.80;106679;1269;99505;-57
2023/09/25 04:00:16;;;;;;;3.70;1.50;;;;;;;5.08;78.56;101087.69;106947;1269;22525;-57
2023/09/25 04:02:44;;;;;;;3.00;1.30;;;;;;;5.06;78.41;101091.15;106752;1270;99319;-56
2023/09/25 04:05:13;;;;;;;1.70;1.20;;;;;;;5.04;78.46;101093.05;106675;1271;23597;-57
2023/09/25 04:07:43;;;;;;;3.10;1.30;;;;;;;5.04;78.00;101096.86;107162;1269;22528;-57
2023/09/25 04:10:11;;;;;;;2.60;1.40;;;;;;;5.00;77.90;101094.45;106896;1270;99205;-57
2023/09/25 04:12:41;;;;;;;4.60;1.40;;;;;;;4.97;78.42;101091.35;106887;1270;25376;-57
2023/09/25 04:15:13;;;;;;;5.10;1.20;;;;;;;4.95;78.08;101092.73;106607;1270;99928;-57
2023/09/25 04:17:43;;;;;;;3.10;1.40;;;;;;;4.93;78.37;101093.09;106633;1269;22527;-56
2023/09/25 04:20:24;;;;;;;1.80;1.40;;;;;;;4.91;78.43;101092.23;106647;1270;24205;-57
2023/09/25 04:22:56;;;;;;;1.90;1.00;;;;;;;4.92;78.58;101092.58;106801;1270;99684;-56
2023/09/25 04:25:24;;;;;;;3.60;1.40;;;;;;;4.91;78.65;101095.86;106842;1270;22531;-56
2023/09/25 04:27:55;;;;;;;2.00;1.40;;;;;;;4.91;78.71;101099.99;107086;1270;99128;-57
2023/09/25 04:30:24;;;;;;;3.50;1.60;;;;;;;4.93;79.00;101099.66;106692;1270;22647;-57
2023/09/25 04:32:56;;;;;;;2.50;1.30;;;;;;;4.98;79.46;101102.23;106947;1270;100473;-57
2023/09/25 04:35:25;;;;;;;2.00;1.20;;;;;;;5.02;79.96;101103.08;107049;1273;22813;-57
2023/09/25 04:37:54;;;;;;;1.60;1.10;;;;;;;5.05;79.89;101100.31;106730;1270;23214;-56
2023/09/25 04:40:23;;;;;;;1.70;1.00;;;;;;;5.06;79.89;101098.75;106744;1270;99169;-57
2023/09/25 04:42:53;;;;;;;2.30;1.00;;;;;;;5.06;80.18;101096.50;106927;1271;22537;-57
2023/09/25 04:45:23;;;;;;;3.80;1.00;;;;;;;5.11;80.56;101099.94;106719;1270;99496;-57
2023/09/25 04:47:52;;;;;;;3.90;2.00;;;;;;;5.16;80.60;101094.77;106818;1270;22604;-56
2023/09/25 04:50:23;;;;;;;2.20;0.90;;;;;;;5.20;80.75;101096.46;106817;1270;22528;-56
2023/09/25 04:52:52;;;;;;;3.20;1.40;;;;;;;5.28;80.78;101091.44;106698;1272;99625;-57
2023/09/25 04:55:21;;;;;;;2.50;1.10;;;;;;;5.38;80.61;101093.98;106912;1270;24266;-57
2023/09/25 04:57:50;;;;;;;4.60;1.20;;;;;;;5.45;80.38;101091.37;106443;1270;101908;-57
2023/09/25 05:00:22;;;;;;;9.20;1.90;;;;;;;5.48;80.17;101095.33;106403;1270;25558;-57
2023/09/25 05:02:52;;;;;;;3.00;1.50;;;;;;;5.49;80.32;101094.63;106761;1269;99700;-57
2023/09/25 05:05:23;;;;;;;2.70;1.30;;;;;;;5.55;80.66;101094.77;106755;1270;25405;-57
2023/09/25 05:07:54;;;;;;;3.20;1.20;;;;;;;5.66;80.77;101100.07;106349;1269;22527;-56
2023/09/25 05:10:25;;;;;;;5.30;1.40;;;;;;;5.77;81.02;101097.26;106471;1269;99090;-56
2023/09/25 05:12:56;;;;;;;6.50;1.90;;;;;;;5.87;81.16;101097.38;106630;1273;22528;-56
2023/09/25 05:15:25;;;;;;;3.20;1.30;;;;;;;6.00;81.24;101094.36;106596;1269;100116;-56
2023/09/25 05:17:54;;;;;;;3.60;1.30;;;;;;;6.12;81.27;101095.69;106598;1272;25341;-58
2023/09/25 05:20:26;;;;;;;3.90;1.30;;;;;;;6.23;81.56;101093.88;106980;1272;26466;-58
2023/09/25 05:22:56;;;;;;;2.80;1.00;;;;;;;6.37;81.72;101101.89;106846;1270;99676;-57
2023/09/25 05:25:26;;;;;;;2.70;1.30;;;;;;;6.51;82.06;101099.87;106504;1270;375673;-58
2023/09/25 05:27:57;;;;;;;2.80;1.30;;;;;;;6.76;82.69;101100.50;106874;1273;99882;-58
2023/09/25 05:30:25;;;;;;;3.30;1.20;;;;;;;7.03;83.12;101098.00;106902;1270;22549;-59
2023/09/25 05:32:54;;;;;;;2.10;1.10;;;;;;;7.29;83.06;101101.16;106889;1270;99296;-59
2023/09/25 05:35:24;;;;;;;6.30;2.00;;;;;;;7.53;83.15;101101.75;106777;1271;23131;-59
2023/09/25 05:37:53;;;;;;;3.10;1.00;;;;;;;7.76;83.36;101099.01;106851;1270;25425;-58
2023/09/25 05:40:22;;;;;;;3.70;1.40;;;;;;;7.99;83.18;101096.42;106615;1270;99129;-58
2023/09/25 05:42:51;;;;;;;5.00;1.50;;;;;;;8.22;83.31;101095.04;106632;1271;22536;-58
2023/09/25 05:45:23;;;;;;;2.60;1.80;;;;;;;8.44;83.15;101095.59;106777;1270;99488;-59
2023/09/25 05:47:52;;;;;;;1.40;1.10;;;;;;;8.68;83.44;101098.66;107409;1271;27538;-57
2023/09/25 05:50:21;;;;;;;3.20;1.10;;;;;;;8.90;83.04;101096.70;106703;1270;22553;-57
2023/09/25 05:52:50;;;;;;;4.90;1.80;;;;;;;9.08;83.01;101100.34;107195;1264;101357;-58
2023/09/25 05:55:19;;;;;;;1.90;1.10;;;;;;;9.29;82.98;101106.56;110065;1270;22546;-58
2023/09/25 05:57:47;;;;;;;4.00;1.40;;;;;;;9.47;82.90;101109.48;106652;1271;99423;-55
2023/09/25 06:00:18;;;;;;;4.00;1.40;;;;;;;9.66;82.77;101113.63;107044;1270;25367;-59
2023/09/25 06:02:47;;;;;;;5.20;1.50;;;;;;;9.85;82.75;101112.15;107099;1270;100369;-57
2023/09/25 06:05:16;;;;;;;1.70;1.30;;;;;;;10.06;82.83;101115.34;107295;1270;22527;-62
2023/09/25 06:07:45;;;;;;;5.60;2.30;;;;;;;10.25;82.78;101114.38;106661;1270;24611;-60
2023/09/25 06:10:17;;;;;;;4.80;1.30;;;;;;;10.44;82.66;101117.26;106579;1271;100893;-56
2023/09/25 06:12:47;;;;;;;2.50;1.20;;;;;;;10.61;82.79;101115.27;106663;1271;22622;-58
2023/09/25 06:15:16;;;;;;;4.90;1.90;;;;;;;10.79;82.90;101118.48;106490;1270;100250;-58
2023/09/25 06:17:46;;;;;;;3.20;1.10;;;;;;;10.98;83.06;101115.53;106815;1270;22530;-61
2023/09/25 06:20:15;;;;;;;5.90;1.70;;;;;;;11.20;83.16;101115.81;106505;1270;25187;-62
2023/09/25 06:22:46;;;;;;;2.90;0.80;;;;;;;11.42;82.80;101118.16;106739;1270;99914;-60
2023/09/25 06:25:17;;;;;;;2.20;1.30;;;;;;;11.65;82.76;101120.64;107211;1266;25416;-60
2023/09/25 06:27:47;;;;;;;1.60;0.90;;;;;;;11.86;82.62;101115.99;106412;1269;99810;-60
2023/09/25 06:30:19;;;;;;;1.40;0.80;;;;;;;12.08;82.24;101115.34;106595;1267;22568;-60
2023/09/25 06:32:48;;;;;;;3.50;1.30;;;;;;;12.28;82.16;101115.91;106745;1270;99474;-63
2023/09/25 06:35:17;;;;;;;2.10;1.00;;;;;;;12.53;82.31;101117.23;106837;1270;22545;-60
2023/09/25 06:37:47;;;;;;;3.50;1.40;;;;;;;12.78;82.17;101121.25;106838;1270;25252;-59
2023/09/25 06:40:17;;;;;;;1.20;0.80;;;;;;;12.97;81.89;101117.83;106910;1269;99829;-60
2023/09/25 06:42:46;;;;;;;1.30;0.60;;;;;;;13.18;81.98;101117.61;106776;1270;22520;-58
2023/09/25 06:45:15;;;;;;;1.20;0.50;;;;;;;13.40;81.97;101117.88;106478;1270;100554;-59
2023/09/25 06:47:47;;;;;;;1.60;0.80;;;;;;;13.62;81.87;101123.36;106894;1269;22611;-59
2023/09/25 06:50:17;;;;;;;1.90;1.00;;;;;;;13.84;81.63;101122.02;107117;1269;22527;-59
2023/09/25 06:52:45;;;;;;;1.10;0.50;;;;;;;13.96;81.27;101122.09;106759;1270;99235;-59
2023/09/25 06:55:14;;;;;;;2.50;0.50;;;;;;;14.11;81.11;101124.98;106974;1270;25433;-60
2023/09/25 06:57:43;;;;;;;1.70;0.50;;;;;;;14.33;80.86;101124.27;106653;1270;100418;-58
2023/09/25 07:00:27;;;;;;;1.60;0.60;;;;;;;14.55;80.59;101124.09;107032;1270;22556;-59
2023/09/25 07:03:30;;;;;;;2.10;0.70;;;;;;;14.89;80.92;101130.02;106496;1269;98991;-58
2023/09/25 07:05:59;;;;;;;2.10;0.70;;;;;;;15.16;80.57;101129.73;106769;1270;22566;-59
2023/09/25 07:08:30;;;;;;;0.80;0.50;;;;;;;15.30;79.56;101125.45;110308;1274;23369;-59
2023/09/25 07:10:59;;;;;;;1.70;0.80;;;;;;;15.45;78.97;101128.11;110178;1270;101095;-59
2023/09/25 07:13:27;;;;;;;1.20;0.50;;;;;;;15.65;79.00;101128.09;108292;1270;22525;-59
2023/09/25 07:16:04;;;;;;;1.90;0.70;;;;;;;15.96;78.97;101131.92;107848;1269;99340;-59
2023/09/25 07:18:33;;;;;;;1.10;0.50;;;;;;;16.23;78.42;101134.32;106693;1269;22537;-59
2023/09/25 07:21:03;;;;;;;2.90;0.60;;;;;;;16.48;78.14;101134.00;106641;1269;99409;-59
2023/09/25 07:23:32;;;;;;;0.60;0.30;;;;;;;16.69;77.54;101138.55;106777;1269;24254;-58
2023/09/25 07:26:09;;;;;;;1.20;0.50;;;;;;;16.83;76.19;101135.48;106818;1269;23387;-58
2023/09/25 07:28:37;;;;;;;1.20;0.50;;;;;;;16.78;74.95;101141.27;106395;1272;99507;-58
2023/09/25 07:31:06;;;;;;;1.90;0.80;;;;;;;16.76;74.45;101135.94;106673;1260;22573;-58
2023/09/25 07:33:36;;;;;;;1.60;0.80;;;;;;;16.91;74.24;101138.37;106850;1269;99745;-59
2023/09/25 07:36:05;;;;;;;1.20;0.60;;;;;;;17.13;74.10;101139.86;106558;1272;22636;-59
2023/09/25 07:38:34;;;;;;;0.70;0.40;;;;;;;17.28;73.28;101138.91;106841;1270;22527;-59
2023/09/25 07:41:05;;;;;;;3.70;0.80;;;;;;;17.46;72.67;101140.79;106365;1269;99826;-57
2023/09/25 07:43:34;;;;;;;1.50;0.70;;;;;;;17.76;72.16;101135.48;106558;1270;24244;-58
2023/09/25 07:46:25;;;;;;;1.00;0.50;;;;;;;18.33;72.51;101146.39;106580;1269;99815;-61
2023/09/25 07:48:54;;;;;;;2.20;0.70;;;;;;;18.57;71.10;101143.41;106789;1270;24617;-59
2023/09/25 07:51:24;;;;;;;1.10;0.40;;;;;;;18.57;70.41;101145.54;106664;1269;101617;-58
2023/09/25 07:53:58;;;;;;;0.70;0.40;;;;;;;18.49;69.87;101146.50;106636;1270;24256;-58
2023/09/25 07:56:27;;;;;;;0.90;0.50;;;;;;;18.53;69.37;101150.16;106645;1270;22527;-60
2023/09/25 07:58:56;;;;;;;1.30;0.50;;;;;;;18.92;69.48;101150.93;106660;1269;99620;-59
2023/09/25 08:01:29;;;;;;;3.30;0.60;;;;;;;19.73;69.28;101153.37;106701;1269;24052;-59
2023/09/25 08:03:59;;;;;;;1.60;0.50;;;;;;;20.53;67.79;101149.37;106625;1270;99256;-58
2023/09/25 08:06:28;;;;;;;4.00;0.50;;;;;;;21.37;65.93;101149.30;106707;1254;25543;-61
2023/09/25 08:08:57;;;;;;;8.00;5.30;;;;;;;22.38;65.40;101149.16;106527;1270;100646;-60
2023/09/25 08:11:26;;;;;;;13.00;7.30;;;;;;;23.82;65.29;101141.61;106645;1269;22680;-60
2023/09/25 08:13:55;;;;;;;514.70;300.10;;;;;;;25.81;65.84;101139.91;106691;1270;22526;-59
2023/09/25 08:16:27;;;;;;;203.90;152.20;;;;;;;28.07;67.19;101140.93;106663;1269;100446;-59
2023/09/25 08:18:56;;;;;;;38.60;34.40;;;;;;;29.17;62.47;101133.80;106572;1269;22552;-59
2023/09/25 08:21:25;;;;;;;4.80;3.00;;;;;;;29.34;59.31;101135.33;106601;1270;101654;-58
2023/09/25 08:23:56;;;;;;;3.00;1.00;;;;;;;29.70;58.08;101135.00;106566;1270;23856;-58
2023/09/25 08:26:25;;;;;;;1.80;0.80;;;;;;;30.48;56.13;101136.66;106444;1270;25415;-58
2023/09/25 08:28:57;;;;;;;18.30;13.40;;;;;;;31.24;52.07;101134.38;106797;1269;99906;-59
2023/09/25 08:31:26;;;;;;;67.90;43.10;;;;;;;31.91;50.46;101129.92;107088;1269;22542;-59
2023/09/25 08:33:55;;;;;;;25.30;17.10;;;;;;;33.01;48.86;101126.38;106530;1270;100217;-59
2023/09/25 08:36:24;;;;;;;12.70;9.70;;;;;;;33.04;45.45;101123.47;106613;1270;22604;-59
2023/09/25 08:38:52;;;;;;;4.50;2.90;;;;;;;32.62;42.99;101121.30;106813;1265;99604;-59
2023/09/25 08:41:23;;;;;;;3.50;2.30;;;;;;;32.54;41.24;101122.26;106674;1269;25345;-59
2023/09/25 08:43:52;;;;;;;10.80;6.20;;;;;;;32.76;39.87;101123.39;106586;1269;22531;-58
2023/09/25 08:46:24;;;;;;;10.30;4.00;;;;;;;33.46;39.01;101123.59;106598;1272;99811;-57
2023/09/25 08:48:56;;;;;;;5.50;2.90;;;;;;;33.95;37.39;101118.95;106613;1268;22758;-61
2023/09/25 08:51:38;;;;;;;4.70;2.20;;;;;;;34.86;37.47;101115.77;106629;1269;99460;-59
2023/09/25 08:54:08;;;;;;;9.60;4.60;;;;;;;36.02;36.48;101118.27;107119;1272;25243;-59
2023/09/25 08:56:45;;;;;;;8.40;3.30;;;;;;;36.61;35.10;101111.02;106986;1272;100536;-59
2023/09/25 08:59:15;;;;;;;2.00;1.10;;;;;;;37.93;34.65;101110.53;107535;1266;25846;-58
2023/09/25 09:01:48;;;;;;;4.10;2.00;;;;;;;38.05;32.71;101107.46;107850;1270;22759;-48
2023/09/25 09:04:25;;;;;;;3.30;1.30;;;;;;;38.23;31.54;101109.65;106961;1269;99311;-60
2023/09/25 09:06:55;;;;;;;1.30;0.90;;;;;;;38.28;29.85;101108.73;106908;1270;22531;-54
2023/09/25 09:09:26;;;;;;;1.20;0.60;;;;;;;37.84;28.85;101107.55;106590;1270;99313;-58
2023/09/25 09:11:57;;;;;;;0.70;0.40;;;;;;;37.50;27.92;101100.83;107444;1270;24285;-58
2023/09/25 09:14:35;;;;;;;2.20;1.10;;;;;;;37.86;27.92;101094.48;107096;1269;25412;-57
2023/09/25 09:17:05;;;;;;;10.10;3.70;;;;;;;39.26;28.00;101093.52;107336;1269;23065;-58
2023/09/25 09:19:46;;;;;;;3.80;1.70;;;;;;;40.77;27.73;101095.23;106887;1269;25764;-60
2023/09/25 09:22:17;;;;;;;12.40;5.30;;;;;;;41.14;26.40;101094.27;107340;1269;99892;-60
2023/09/25 09:24:47;;;;;;;10.80;4.10;;;;;;;40.66;25.17;101091.19;106846;1269;22520;-59
2023/09/25 09:27:20;;;;;;;5.20;2.50;;;;;;;40.06;24.60;101083.50;106775;1269;100084;-59
2023/09/25 09:29:52;;;;;;;2.10;0.90;;;;;;;40.41;24.15;101078.63;106979;1272;23877;-59
2023/09/25 09:32:21;;;;;;;5.50;3.40;;;;;;;40.46;23.46;101076.66;107054;1269;24440;-59
2023/09/25 09:34:53;;;;;;;1.10;0.50;;;;;;;40.35;23.09;101074.27;106955;1269;99839;-57
2023/09/25 09:37:22;;;;;;;1.20;0.40;;;;;;;40.62;22.50;101073.27;106668;1272;25422;-59
2023/09/25 09:39:55;;;;;;;0.80;0.40;;;;;;;40.03;21.69;101075.93;106630;1269;99286;-57
2023/09/25 09:42:28;;;;;;;1.30;0.80;;;;;;;39.31;20.99;101070.88;106752;1272;24088;-58
2023/09/25 09:44:58;;;;;;;;;;;;;;;38.94;21.08;101070.23;107094;1269;100331;-58
2023/09/25 09:47:30;;;;;;;0.90;0.40;;;;;;;38.99;21.07;101065.80;106556;1269;23788;-59
2023/09/25 09:49:59;;;;;;;10.60;6.50;;;;;;;39.08;20.90;101064.59;106660;1269;23704;-58
2023/09/25 09:52:32;;;;;;;3.10;2.50;;;;;;;39.00;21.37;101060.42;106842;1269;100342;-54
2023/09/25 09:55:08;;;;;;;3.30;1.10;;;;;;;40.39;21.58;101062.48;106803;1269;23617;-57
2023/09/25 09:57:38;;;;;;;20.00;10.20;;;;;;;41.02;21.61;101061.19;106673;1272;99357;-61
2023/09/25 10:00:35;;;;;;;4.60;2.50;;;;;;;41.27;21.01;101065.42;108042;1270;22517;-59
2023/09/25 10:03:08;;;;;;;1.40;0.60;;;;;;;40.46;20.80;101060.67;106825;1269;99518;-60
2023/09/25 10:06:04;;;;;;;8.40;1.50;;;;;;;40.78;20.77;101059.41;107046;1270;22580;-60
2023/09/25 10:08:34;;;;;;;18.60;9.60;;;;;;;41.19;20.44;101051.46;106680;1269;24363;-64
2023/09/25 10:11:15;;;;;;;1.20;0.90;;;;;;;41.77;20.40;101053.12;106903;1269;100666;-61
2023/09/25 10:13:45;;;;;;;0.80;0.40;;;;;;;41.99;20.04;101049.46;107416;1272;23434;-62
2023/09/25 10:16:25;;;;;;;3.50;1.20;;;;;;;41.81;19.59;101053.64;107060;1269;98450;-60
2023/09/25 10:19:21;;;;;;;1.60;0.40;;;;;;;40.61;19.60;101050.21;108054;1269;25466;-57
2023/09/25 10:22:18;;;;;;;0.80;0.30;;;;;;;39.67;19.36;101050.38;106815;1269;101113;-61
2023/09/25 10:24:58;;;;;;;1.10;0.30;;;;;;;39.71;20.15;101048.61;107187;1270;22535;-60
2023/09/25 10:27:34;;;;;;;0.60;0.20;;;;;;;40.22;19.93;101048.17;107328;1269;99331;-60
2023/09/25 10:30:33;;;;;;;0.50;0.40;;;;;;;40.96;19.99;101034.80;107159;1270;23193;-60
2023/09/25 10:33:03;;;;;;;1.10;0.40;;;;;;;42.26;20.49;101036.10;106547;1269;99518;-61
2023/09/25 10:35:40;;;;;;;1.60;0.30;;;;;;;43.62;20.36;101037.13;106646;1270;25310;-61
2023/09/25 10:38:19;;;;;;;1.00;0.60;;;;;;;43.42;20.19;101031.00;106681;1269;24294;-61
2023/09/25 10:40:54;;;;;;;0.70;0.50;;;;;;;43.43;19.95;101034.48;107066;1271;101137;-61
2023/09/25 10:43:24;;;;;;;0.40;0.40;;;;;;;42.84;19.76;101027.61;106990;1269;22647;-60
2023/09/25 10:45:54;;;;;;;0.70;0.40;;;;;;;43.02;19.22;101029.77;106603;1270;99585;-61
2023/09/25 10:48:28;;;;;;;1.00;0.50;;;;;;;42.18;18.97;101024.62;107413;1269;22590;-57
2023/09/25 10:51:32;;;;;;;1.20;0.40;;;;;;;38.96;18.48;101026.33;106436;1269;99412;-61
2023/09/25 10:54:03;;;;;;;0.40;0.20;;;;;;;36.61;19.02;101025.71;107383;1271;22595;-59
2023/09/25 10:56:43;;;;;;;1.10;0.60;;;;;;;35.34;19.25;101026.07;106991;1269;23151;-65
2023/09/25 10:59:13;;;;;;;1.50;0.50;;;;;;;34.26;19.72;101022.04;107115;1271;23889;-66
2023/09/25 11:02:14;;;;;;;1.30;0.30;;;;;;;32.42;20.20;101023.49;107417;1270;25422;-64
2023/09/25 11:04:43;;;;;;;0.60;0.30;;;;;;;31.22;21.89;101020.84;107049;1270;101304;-61
2023/09/25 11:07:22;;;;;;;1.50;0.30;;;;;;;33.96;22.35;101012.14;107021;1270;22513;-64
2023/09/25 11:10:16;;;;;;;1.10;0.30;;;;;;;36.76;22.68;101003.81;107714;1269;99266;-62
2023/09/25 11:12:47;;;;;;;;;;;;;;;39.59;22.61;101003.87;108810;1269;25517;-60
2023/09/25 11:15:20;;;;;;;3.10;2.60;;;;;;;40.71;21.90;101003.88;109970;1270;86581;-62
2023/09/25 11:18:04;;;;;;;3.90;3.20;;;;;;;40.98;20.89;100995.90;109746;1267;22651;-62
2023/09/25 11:21:16;;;;;;;1.80;0.70;;;;;;;41.64;20.87;100994.52;106712;1269;100517;-63
2023/09/25 11:23:45;;;;;;;0.50;0.40;;;;;;;41.49;19.86;100994.73;107252;1270;22547;-60
2023/09/25 11:26:15;;;;;;;0.40;0.40;;;;;;;40.23;19.82;100993.86;109926;1270;22161;-60
2023/09/25 11:28:44;;;;;;;0.50;0.40;;;;;;;40.69;19.87;100989.11;109963;1270;99334;-64
2023/09/25 11:31:19;;;;;;;0.90;0.80;;;;;;;41.99;20.10;100984.06;109603;1269;22701;-62
2023/09/25 11:33:52;;;;;;;4.00;3.00;;;;;;;42.97;19.44;100990.35;107048;1265;100439;-61
2023/09/25 11:36:21;;;;;;;16.40;11.60;;;;;;;43.17;18.98;100987.41;107146;1269;22552;-62
2023/09/25 11:38:50;;;;;;;1.60;1.40;;;;;;;42.81;19.04;100983.21;109911;1270;102380;-61